Terminal Aerodrome Forecast
Issued by NWS Midland/Odessa, TX

Home | Current Version | Previous Version | Text Only | Print | Product List | Glossary On
Versions: 1 2 3 4 5 6 7 8 9 10 11 12 13 14 15 16 17 18 19 20
905
FTUS44 KMAF 212320
TAFMAF
TAF
KMAF 212320Z 2200/2224 16011KT P6SM SCT080
     FM221200 16011G21KT P6SM OVC015
     FM221700 16017G26KT P6SM SCT080=

USA.gov is the U.S. government's official web portal to all federal, state and local government web resources and services.